createdAt,value
2023-02-07T00:02:19.018Z,99540.31
2023-02-07T00:06:21.549Z,99527.94
2023-02-07T00:10:23.107Z,99545.06
2023-02-07T00:14:25.814Z,99560.94
2023-02-07T00:18:27.148Z,99556.88
2023-02-07T00:22:28.484Z,99567.88
2023-02-07T00:26:31.653Z,99565.88
2023-02-07T00:30:34.486Z,99550.47
2023-02-07T00:34:35.898Z,99569.31
2023-02-07T00:38:37.238Z,99570.22
2023-02-07T00:42:38.586Z,99557.59
2023-02-07T00:46:41.344Z,99540.75
2023-02-07T00:50:42.739Z,99543.78
2023-02-07T00:54:44.090Z,99536.41
2023-02-07T00:58:45.453Z,99529.16
2023-02-07T01:02:48.178Z,99522.81
2023-02-07T01:06:49.552Z,99543.53
2023-02-07T01:10:50.890Z,99534.84
2023-02-07T01:14:52.228Z,99532.03
2023-02-07T01:18:55.168Z,99536.34
2023-02-07T01:22:56.562Z,99536.78
2023-02-07T01:26:57.904Z,99541.13
2023-02-07T01:30:59.319Z,99560.59
2023-02-07T01:35:02.142Z,99562.41
2023-02-07T01:39:03.751Z,99580.88
2023-02-07T01:43:05.103Z,99574.63
2023-02-07T01:47:06.934Z,99561.44
2023-02-07T01:51:09.647Z,99553.34
2023-02-07T01:55:13.332Z,99552.41
2023-02-07T01:59:15.424Z,99532.88
2023-02-07T02:03:16.776Z,99544.69
2023-02-07T02:07:19.631Z,99553.56
2023-02-07T02:11:39.428Z,99553.88
2023-02-07T02:15:44.669Z,99557.22
2023-02-07T02:20:09.872Z,99550.13
2023-02-07T02:24:23.983Z,99544.00
2023-02-07T02:28:36.588Z,99531.81
2023-02-07T02:32:58.329Z,99530.47
2023-02-07T02:37:03.445Z,99523.59
2023-02-07T02:41:06.271Z,99529.63
2023-02-07T02:45:10.828Z,99523.03
2023-02-07T02:49:14.810Z,99537.94
2023-02-07T02:53:16.529Z,99534.13
2023-02-07T02:57:29.831Z,99530.38
2023-02-07T03:01:37.403Z,99520.13
2023-02-07T03:05:46.263Z,99523.06
2023-02-07T03:09:52.702Z,99517.69
2023-02-07T03:13:58.891Z,99522.69
2023-02-07T03:18:04.470Z,99522.78
2023-02-07T03:22:08.459Z,99529.72
2023-02-07T03:26:10.110Z,99516.69
2023-02-07T03:30:14.288Z,99511.34
2023-02-07T03:34:17.531Z,99520.31
2023-02-07T03:38:20.385Z,99515.09
2023-02-07T03:42:26.493Z,99512.09
2023-02-07T03:46:32.349Z,99500.34
2023-02-07T03:50:33.731Z,99511.94
2023-02-07T03:54:36.459Z,99516.44
2023-02-07T03:58:37.790Z,99524.22
2023-02-07T04:02:39.736Z,99519.41
2023-02-07T04:06:41.069Z,99514.47
2023-02-07T04:10:43.793Z,99518.59
2023-02-07T04:14:45.169Z,99520.84
2023-02-07T04:18:46.512Z,99530.34
2023-02-07T04:22:47.867Z,99524.53
2023-02-07T04:26:50.636Z,99528.78
2023-02-07T04:30:52.059Z,99536.13
2023-02-07T04:34:53.413Z,99538.66
2023-02-07T04:38:54.866Z,99539.63
2023-02-07T04:42:57.590Z,99549.25
2023-02-07T04:46:58.920Z,99547.16
2023-02-07T04:51:00.307Z,99548.28
2023-02-07T04:55:01.745Z,99546.44
2023-02-07T04:59:04.510Z,99533.28
2023-02-07T05:03:05.841Z,99535.22
2023-02-07T05:07:07.212Z,99522.13
2023-02-07T05:11:08.616Z,99520.97
2023-02-07T05:15:11.340Z,99528.00
2023-02-07T05:19:13.031Z,99518.56
2023-02-07T05:23:14.467Z,99533.94
2023-02-07T05:27:15.799Z,99543.44
2023-02-07T05:31:18.661Z,99537.06
2023-02-07T05:35:20.230Z,99541.81
2023-02-07T05:39:21.795Z,99549.88
2023-02-07T05:43:23.135Z,99542.44
2023-02-07T05:47:25.937Z,99536.06
2023-02-07T05:51:27.272Z,99545.13
2023-02-07T05:55:28.721Z,99556.69
2023-02-07T05:59:30.060Z,99575.88
2023-02-07T06:03:32.791Z,99581.91
2023-02-07T06:07:34.392Z,99597.34
2023-02-07T06:11:35.732Z,99605.50
2023-02-07T06:15:37.530Z,99612.16
2023-02-07T06:19:40.482Z,99616.66
2023-02-07T06:23:41.801Z,99607.97
2023-02-07T06:27:43.137Z,99614.94
2023-02-07T06:31:44.547Z,99620.84
2023-02-07T06:35:47.423Z,99609.03
2023-02-07T06:39:48.781Z,99616.75
2023-02-07T06:43:50.120Z,99610.97
2023-02-07T06:47:51.520Z,99617.72
2023-02-07T06:51:54.474Z,99606.13
2023-02-07T06:55:56.082Z,99629.91
2023-02-07T06:59:57.453Z,99635.09
2023-02-07T07:03:58.793Z,99635.88
2023-02-07T07:08:01.494Z,99645.81
2023-02-07T07:12:03.121Z,99643.81
2023-02-07T07:16:04.790Z,99662.22
2023-02-07T07:20:06.707Z,99665.84
2023-02-07T07:24:09.774Z,99653.69
2023-02-07T07:28:11.136Z,99661.59
2023-02-07T07:32:19.904Z,99657.94
2023-02-07T07:36:26.517Z,99661.78
2023-02-07T07:40:29.282Z,99659.28
2023-02-07T07:44:30.730Z,99651.84
2023-02-07T07:48:32.129Z,99658.34
2023-02-07T07:52:33.527Z,99659.88
2023-02-07T07:56:36.212Z,99660.34
2023-02-07T08:00:37.954Z,99656.22
2023-02-07T08:04:39.545Z,99657.94
2023-02-07T08:08:41.003Z,99636.00
2023-02-07T08:12:44.302Z,99646.06
2023-02-07T08:16:45.703Z,99632.47
2023-02-07T08:20:48.442Z,99631.47
2023-02-07T08:24:49.802Z,99637.84
2023-02-07T08:28:52.552Z,99634.16
2023-02-07T08:32:53.901Z,99642.19
2023-02-07T08:36:55.268Z,99635.47
2023-02-07T08:40:56.596Z,99642.69
2023-02-07T08:44:59.324Z,99633.44
2023-02-07T08:49:00.779Z,99625.06
2023-02-07T08:53:02.108Z,99619.06
2023-02-07T08:57:03.811Z,99626.22
2023-02-07T09:01:06.667Z,99628.94
2023-02-07T09:05:08.105Z,99630.44
2023-02-07T09:09:09.473Z,99618.13
2023-02-07T09:13:10.831Z,99614.50
2023-02-07T09:17:13.588Z,99614.19
2023-02-07T09:21:14.918Z,99614.09
2023-02-07T09:25:16.364Z,99621.31
2023-02-07T09:29:17.880Z,99616.34
2023-02-07T09:33:20.607Z,99598.22
2023-02-07T09:37:21.957Z,99605.22
2023-02-07T09:41:29.465Z,99599.06
2023-02-07T09:45:34.549Z,99599.31
2023-02-07T09:49:38.907Z,99597.16
2023-02-07T09:53:43.197Z,99595.19
2023-02-07T09:57:47.031Z,99598.94
2023-02-07T10:01:49.015Z,99602.38
2023-02-07T10:05:55.172Z,99587.50
2023-02-07T10:09:56.553Z,99591.25
2023-02-07T10:14:03.339Z,99597.19
2023-02-07T10:18:15.964Z,99590.75
2023-02-07T10:22:24.335Z,99582.66
2023-02-07T10:26:31.792Z,99583.28
2023-02-07T10:30:34.865Z,99571.09
2023-02-07T10:34:38.405Z,99573.78
2023-02-07T10:38:43.892Z,99561.25
2023-02-07T10:42:47.948Z,99561.88
2023-02-07T10:46:52.666Z,99558.75
2023-02-07T10:50:54.109Z,99562.84
2023-02-07T10:54:57.916Z,99562.25
2023-02-07T10:58:59.859Z,99560.06
2023-02-07T11:03:01.966Z,99557.09
2023-02-07T11:07:04.194Z,99570.53
2023-02-07T11:11:26.855Z,99566.94
2023-02-07T11:15:32.580Z,99570.66
2023-02-07T11:19:33.989Z,99568.53
2023-02-07T11:23:35.404Z,99561.53
2023-02-07T11:27:39.465Z,99553.66
2023-02-07T11:31:42.776Z,99551.97
2023-02-07T11:35:59.043Z,99543.53
2023-02-07T11:40:19.916Z,99535.97
2023-02-07T11:44:24.374Z,99533.06
2023-02-07T11:48:27.908Z,99530.72
2023-02-07T11:52:31.109Z,99519.78
2023-02-07T11:56:33.824Z,99518.81
2023-02-07T12:00:37.908Z,99516.47
2023-02-07T12:04:39.312Z,99514.25
2023-02-07T12:08:41.269Z,99519.38
2023-02-07T12:12:44.594Z,99506.34
2023-02-07T12:16:51.860Z,99498.53
2023-02-07T12:20:56.630Z,99509.88
2023-02-07T12:25:01.818Z,99502.72
2023-02-07T12:29:13.487Z,99508.09
2023-02-07T12:33:20.995Z,99498.44
2023-02-07T12:37:26.301Z,99493.31
2023-02-07T12:41:30.202Z,99492.22
2023-02-07T12:45:38.834Z,99494.53
2023-02-07T12:49:57.185Z,99485.09
2023-02-07T12:54:05.324Z,99492.25
2023-02-07T12:58:16.721Z,99495.03
2023-02-07T13:02:23.743Z,99489.63
2023-02-07T13:06:31.913Z,99486.31
2023-02-07T13:10:37.000Z,99484.94
2023-02-07T13:14:42.796Z,99480.09
2023-02-07T13:18:46.835Z,99486.03
2023-02-07T13:22:52.441Z,99480.78
2023-02-07T13:26:55.176Z,99494.19
2023-02-07T13:30:58.672Z,99481.34
2023-02-07T13:35:01.812Z,99482.28
2023-02-07T13:39:08.921Z,99474.19
2023-02-07T13:43:14.393Z,99482.91
2023-02-07T13:47:33.721Z,99481.56
2023-02-07T13:51:40.733Z,99479.56
2023-02-07T13:55:43.825Z,99473.84
2023-02-07T14:00:04.192Z,99477.06
2023-02-07T14:04:06.654Z,99475.81
2023-02-07T14:08:21.730Z,99473.41
2023-02-07T14:12:26.405Z,99458.75
2023-02-07T14:16:42.370Z,99467.59
2023-02-07T14:20:47.929Z,99459.16
2023-02-07T14:25:07.351Z,99454.97
2023-02-07T14:29:36.178Z,99460.78
2023-02-07T14:33:38.522Z,99463.53
2023-02-07T14:37:41.193Z,99464.38
2023-02-07T14:41:43.070Z,99467.06
2023-02-07T14:45:59.284Z,99461.53
2023-02-07T14:50:00.873Z,99474.16
2023-02-07T14:54:03.481Z,99472.03
2023-02-07T14:58:08.515Z,99474.16
2023-02-07T15:02:29.736Z,99469.72
2023-02-07T15:06:36.502Z,99470.91
2023-02-07T15:10:40.133Z,99467.78
2023-02-07T15:14:41.738Z,99465.28
2023-02-07T15:18:46.010Z,99464.16
2023-02-07T15:22:48.710Z,99475.00
2023-02-07T15:26:53.436Z,99476.78
2023-02-07T15:30:55.736Z,99470.81
2023-02-07T15:34:59.280Z,99473.72
2023-02-07T15:39:01.847Z,99477.72
2023-02-07T15:43:03.307Z,99480.34
2023-02-07T15:47:06.834Z,99490.31
2023-02-07T15:51:10.442Z,99503.81
2023-02-07T15:55:16.155Z,99504.75
2023-02-07T15:59:19.283Z,99508.41
2023-02-07T16:03:21.918Z,99503.00
2023-02-07T16:07:25.102Z,99516.38
2023-02-07T16:11:34.967Z,99517.59
2023-02-07T16:15:37.564Z,99527.84
2023-02-07T16:19:45.582Z,99523.53
2023-02-07T16:23:49.594Z,99530.94
2023-02-07T16:27:52.071Z,99536.13
2023-02-07T16:31:54.463Z,99529.75
2023-02-07T16:35:55.810Z,99531.31
2023-02-07T16:39:58.517Z,99534.91
2023-02-07T16:44:00.273Z,99540.13
2023-02-07T16:48:01.614Z,99540.53
2023-02-07T16:52:03.011Z,99527.31
2023-02-07T16:56:06.010Z,99537.00
2023-02-07T17:00:08.059Z,99537.22
2023-02-07T17:04:11.651Z,99541.28
2023-02-07T17:08:14.017Z,99555.19
2023-02-07T17:12:16.758Z,99544.53
2023-02-07T17:16:18.131Z,99546.56
2023-02-07T17:20:22.209Z,99547.59
2023-02-07T17:24:23.560Z,99551.81
2023-02-07T17:28:26.239Z,99551.16
2023-02-07T17:32:27.568Z,99549.13
2023-02-07T17:36:28.986Z,99553.16
2023-02-07T17:40:31.431Z,99551.47
2023-02-07T17:44:34.175Z,99548.78
2023-02-07T17:48:35.530Z,99558.88
2023-02-07T17:52:36.873Z,99555.50
2023-02-07T17:56:38.317Z,99556.47
2023-02-07T18:00:41.506Z,99547.47
2023-02-07T18:04:43.052Z,99545.78
2023-02-07T18:08:44.896Z,99554.22
2023-02-07T18:12:46.370Z,99555.75
2023-02-07T18:16:49.081Z,99562.31
2023-02-07T18:20:50.424Z,99559.75
2023-02-07T18:24:51.779Z,99568.22
2023-02-07T18:28:53.118Z,99558.69
2023-02-07T18:32:55.857Z,99558.97
2023-02-07T18:36:57.232Z,99567.63
2023-02-07T18:40:58.653Z,99564.88
2023-02-07T18:45:00.004Z,99562.66
2023-02-07T18:49:02.745Z,99572.72
2023-02-07T18:53:04.089Z,99563.56
2023-02-07T18:57:05.757Z,99565.09
2023-02-07T19:01:10.089Z,99556.75
2023-02-07T19:05:12.959Z,99559.78
2023-02-07T19:09:14.764Z,99550.59
2023-02-07T19:13:16.099Z,99551.38
2023-02-07T19:17:17.453Z,99552.13
2023-02-07T19:21:21.218Z,99547.56
2023-02-07T19:25:22.574Z,99551.38
2023-02-07T19:29:25.140Z,99553.69
2023-02-07T19:33:26.495Z,99554.91
2023-02-07T19:37:29.219Z,99557.69
2023-02-07T19:41:30.741Z,99554.22
2023-02-07T19:45:32.112Z,99558.78
2023-02-07T19:49:33.459Z,99555.94
2023-02-07T19:53:36.214Z,99557.72
2023-02-07T19:57:37.574Z,99564.09
2023-02-07T20:01:38.973Z,99560.78
2023-02-07T20:05:43.358Z,99568.34
2023-02-07T20:09:46.202Z,99570.03
2023-02-07T20:13:48.651Z,99567.97
2023-02-07T20:17:50.008Z,99571.66
2023-02-07T20:21:51.361Z,99571.34
2023-02-07T20:25:54.088Z,99577.72
2023-02-07T20:29:55.485Z,99590.53
2023-02-07T20:33:57.090Z,99583.63
2023-02-07T20:37:58.487Z,99594.69
2023-02-07T20:42:01.195Z,99596.75
2023-02-07T20:46:07.159Z,99597.75
2023-02-07T20:50:08.757Z,99601.31
2023-02-07T20:54:10.794Z,99602.78
2023-02-07T20:58:13.478Z,99600.19
2023-02-07T21:02:14.899Z,99599.69
2023-02-07T21:06:16.508Z,99603.16
2023-02-07T21:10:18.087Z,99598.78
2023-02-07T21:14:22.234Z,99596.38
2023-02-07T21:18:23.598Z,99601.41
2023-02-07T21:22:24.949Z,99591.13
2023-02-07T21:26:26.799Z,99593.22
2023-02-07T21:30:29.583Z,99593.50
2023-02-07T21:34:30.978Z,99590.84
2023-02-07T21:38:32.329Z,99592.22
2023-02-07T21:42:33.675Z,99586.28
2023-02-07T21:46:37.196Z,99587.59
2023-02-07T21:50:38.793Z,99595.78
2023-02-07T21:54:40.341Z,99588.97
2023-02-07T21:58:42.147Z,99601.00
2023-02-07T22:02:44.863Z,99596.22
2023-02-07T22:06:46.652Z,99599.63
2023-02-07T22:10:47.986Z,99597.66
2023-02-07T22:14:49.365Z,99597.94
2023-02-07T22:18:53.299Z,99595.56
2023-02-07T22:22:54.659Z,99591.47
2023-02-07T22:26:56.006Z,99594.16
2023-02-07T22:30:57.726Z,99597.56
2023-02-07T22:35:00.484Z,99601.41
2023-02-07T22:39:02.594Z,99594.75
2023-02-07T22:43:04.181Z,99600.81
2023-02-07T22:47:05.544Z,99597.75
2023-02-07T22:51:12.347Z,99603.41
2023-02-07T22:55:13.753Z,99586.00
2023-02-07T22:59:15.160Z,99595.72
2023-02-07T23:03:16.509Z,99589.50
2023-02-07T23:07:19.213Z,99584.28
2023-02-07T23:11:21.526Z,99579.34
2023-02-07T23:15:22.894Z,99587.44
2023-02-07T23:19:24.262Z,99578.72
2023-02-07T23:23:26.973Z,99580.34
2023-02-07T23:27:28.357Z,99575.53
2023-02-07T23:31:29.837Z,99584.06
2023-02-07T23:35:31.325Z,99585.03
2023-02-07T23:39:34.068Z,99580.06
2023-02-07T23:43:35.900Z,99578.81
2023-02-07T23:47:37.254Z,99574.84
2023-02-07T23:51:38.621Z,99581.78
2023-02-07T23:55:41.935Z,99573.84
2023-02-07T23:59:43.298Z,99577.53
